»·PEaware :: N929X KPSP-KBUR

N929X :: KPSP-KBUR

FLIGHT INFORMATION

Flight Status: Arrived
Operator: Privately registered:
United States
More flights under this callsign
Pilot: Scott M. (16181)
Aircraft: CESSNA 172 SKYHAWK
(C172)
More flights by this aircraft type
Origin: KPSP Palm Springs Intl
United States
Destination: KBUR Bob Hope-Burbank
United States
More flights between these airports :: More routes between these airports
Route:
File this flight plan on PilotEdge
Remarks:
Altitude:
(Current/Filed)
8,500ft
Speed:
(Current/Filed)
120kts
Departed: 15-Aug-18 05:30 PM
Arrived: 15-Aug-18 06:30 PM
Distance/Time
Traveled:
95nm/1:00
Distance/Time
To Go:
Arrived

Flight Plot

Page will automatically refresh every two minutes.

Flight plan parsing failed; only flown route is shown


Map Options




Map Legend


Flown Route
Filed Route
Departure Airport
Arrival Airport
Navaid (VOR, NDB)
Fix

Horizontal Profiles

Position Reports

Time Latitude Longitude Heading Altitude Ground
Speed
15-Aug-18 17:21 33.824303 -116.498418 56 400ft 0kts
15-Aug-18 17:22 33.824303 -116.498418 56 400ft 0kts
15-Aug-18 17:23 33.824303 -116.498418 56 400ft 0kts
15-Aug-18 17:24 33.824303 -116.498418 56 400ft 0kts
15-Aug-18 17:25 33.824303 -116.498418 56 400ft 0kts
15-Aug-18 17:26 33.824560 -116.498510 318 400ft 0kts
15-Aug-18 17:27 33.824560 -116.498510 318 400ft 0kts
15-Aug-18 17:28 33.827150 -116.501575 325 410ft 25kts
15-Aug-18 17:29 33.833097 -116.506856 322 430ft 25kts
15-Aug-18 17:30 33.835346 -116.509177 251 436ft 0kts
15-Aug-18 17:31 33.833133 -116.507858 143 432ft 53kts
15-Aug-18 17:32 33.818834 -116.491337 93 908ft 80kts
15-Aug-18 17:33 33.836982 -116.495831 316 1444ft 90kts
15-Aug-18 17:34 33.855603 -116.516303 309 1996ft 91kts
15-Aug-18 17:35 33.869445 -116.541887 291 2510ft 92kts
15-Aug-18 17:36 33.876833 -116.571681 283 3003ft 93kts
15-Aug-18 17:37 33.882561 -116.601907 273 3471ft 94kts
15-Aug-18 17:38 33.884230 -116.627798 270 3868ft 92kts
15-Aug-18 17:39 33.887984 -116.663926 273 4378ft 94kts
15-Aug-18 17:40 33.891870 -116.695163 275 4796ft 95kts
15-Aug-18 17:41 33.893015 -116.721525 266 5129ft 94kts
15-Aug-18 17:42 33.891728 -116.753024 251 5517ft 93kts
15-Aug-18 17:43 33.889220 -116.783751 268 5913ft 91kts
15-Aug-18 17:44 33.892874 -116.819399 277 6308ft 95kts
15-Aug-18 17:45 33.897370 -116.845848 279 6561ft 98kts
15-Aug-18 17:46 33.903595 -116.878128 280 6864ft 101kts
15-Aug-18 17:47 33.910406 -116.911794 281 7168ft 105kts
15-Aug-18 17:48 33.917453 -116.946072 281 7470ft 106kts
15-Aug-18 17:49 33.924580 -116.980627 281 7772ft 106kts
15-Aug-18 17:50 33.931709 -117.015210 281 8075ft 106kts
15-Aug-18 17:51 33.938760 -117.049460 281 8376ft 105kts
15-Aug-18 17:52 33.946065 -117.084977 282 8510ft 116kts
15-Aug-18 17:53 33.953821 -117.122295 282 8509ft 115kts
15-Aug-18 17:54 33.961521 -117.159743 282 8509ft 115kts
15-Aug-18 17:55 33.969192 -117.197201 282 8509ft 115kts
15-Aug-18 17:56 33.976860 -117.234744 282 8489ft 117kts
15-Aug-18 17:57 33.984317 -117.271250 282 8408ft 119kts
15-Aug-18 17:58 33.992104 -117.309489 282 8409ft 116kts
15-Aug-18 17:59 33.999771 -117.347242 282 8409ft 115kts
15-Aug-18 18:00 34.007395 -117.384835 282 8409ft 115kts
15-Aug-18 18:01 34.014855 -117.421671 282 8409ft 115kts
15-Aug-18 18:02 34.022474 -117.459349 282 8409ft 115kts
15-Aug-18 18:03 34.030155 -117.497479 282 8409ft 119kts
15-Aug-18 18:04 34.038056 -117.536701 282 8409ft 122kts
15-Aug-18 18:05 34.046061 -117.576487 282 8409ft 122kts
15-Aug-18 18:06 34.054099 -117.616510 282 8409ft 122kts
15-Aug-18 18:07 34.062056 -117.656208 281 8408ft 122kts
15-Aug-18 18:08 34.070016 -117.695979 281 8408ft 122kts
15-Aug-18 18:09 34.078003 -117.735958 281 8408ft 122kts
15-Aug-18 18:10 34.085981 -117.775963 281 8408ft 122kts
15-Aug-18 18:11 34.094017 -117.815857 281 8296ft 121kts
15-Aug-18 18:12 34.101924 -117.855253 281 7600ft 120kts
15-Aug-18 18:13 34.109526 -117.893570 281 6797ft 116kts
15-Aug-18 18:14 34.116991 -117.931275 281 5994ft 115kts
15-Aug-18 18:15 34.124400 -117.968780 281 5189ft 114kts
15-Aug-18 18:16 34.131739 -118.005969 281 4432ft 109kts
15-Aug-18 18:17 34.138340 -118.039827 280 4389ft 103kts
15-Aug-18 18:18 34.144817 -118.072821 280 4389ft 100kts
15-Aug-18 18:19 34.151155 -118.104975 280 4135ft 101kts
15-Aug-18 18:20 34.157674 -118.138103 280 3632ft 101kts
15-Aug-18 18:21 34.164186 -118.171360 280 3130ft 101kts
15-Aug-18 18:22 34.170609 -118.203948 279 2681ft 92kts
15-Aug-18 18:23 34.174881 -118.233274 275 2477ft 88kts
15-Aug-18 18:24 34.179237 -118.262853 277 2179ft 90kts
15-Aug-18 18:25 34.184019 -118.292196 276 1826ft 89kts
15-Aug-18 18:26 34.188975 -118.320670 278 1496ft 84kts
15-Aug-18 18:27 34.190214 -118.345441 253 1319ft 69kts
15-Aug-18 18:28 34.185606 -118.365402 243 1231ft 62kts
15-Aug-18 18:29 34.184405 -118.385341 301 1232ft 61kts
15-Aug-18 18:30 34.198018 -118.379128 89 1071ft 63kts
15-Aug-18 18:31 34.197768 -118.361333 88 717ft 26kts
15-Aug-18 18:32 34.198918 -118.361981 271 721ft 17kts
15-Aug-18 18:33 34.200341 -118.364584 0 727ft 0kts

Navigation Log

Ident Type
Flight plan parsing failed, navigation log unavailable